createdAt,value
2018-01-11T00:02:20.917Z,32.63
2018-01-11T00:04:48.329Z,33.17
2018-01-11T00:07:15.694Z,32.63
2018-01-11T00:09:43.061Z,33.10
2018-01-11T00:12:10.482Z,33.97
2018-01-11T00:14:38.070Z,33.10
2018-01-11T00:17:05.449Z,34.03
2018-01-11T00:19:32.845Z,33.97
2018-01-11T00:22:00.198Z,33.30
2018-01-11T00:24:27.570Z,33.10
2018-01-11T00:26:55.017Z,32.87
2018-01-11T00:29:22.399Z,31.70
2018-01-11T00:31:49.767Z,31.93
2018-01-11T00:34:17.181Z,32.97
2018-01-11T00:36:44.541Z,32.77
2018-01-11T00:39:11.914Z,33.90
2018-01-11T00:41:39.308Z,32.83
2018-01-11T00:44:06.665Z,34.97
2018-01-11T00:46:34.317Z,33.70
2018-01-11T00:49:01.745Z,33.60
2018-01-11T00:51:29.138Z,34.00
2018-01-11T00:53:56.498Z,33.50
2018-01-11T00:56:23.897Z,34.70
2018-01-11T00:58:51.249Z,34.97
2018-01-11T01:01:18.667Z,35.17
2018-01-11T01:03:46.066Z,35.77
2018-01-11T01:06:13.425Z,34.97
2018-01-11T01:08:40.784Z,35.20
2018-01-11T01:11:08.200Z,34.40
2018-01-11T01:13:35.570Z,34.40
2018-01-11T01:16:02.948Z,34.47
2018-01-11T01:18:30.359Z,34.93
2018-01-11T01:20:57.769Z,33.73
2018-01-11T01:23:25.172Z,36.43
2018-01-11T01:25:52.541Z,34.77
2018-01-11T01:28:19.909Z,36.87
2018-01-11T01:30:47.301Z,35.77
2018-01-11T01:33:14.685Z,36.97
2018-01-11T01:35:42.050Z,36.90
2018-01-11T01:38:09.533Z,35.70
2018-01-11T01:40:36.921Z,35.87
2018-01-11T01:43:04.292Z,36.03
2018-01-11T01:45:31.712Z,36.50
2018-01-11T01:47:59.086Z,34.23
2018-01-11T01:50:26.561Z,36.83
2018-01-11T01:52:53.989Z,34.80
2018-01-11T01:55:21.355Z,35.10
2018-01-11T01:57:48.724Z,35.47
2018-01-11T02:00:16.144Z,34.73
2018-01-11T02:02:43.506Z,35.37
2018-01-11T02:05:10.888Z,34.77
2018-01-11T02:07:38.321Z,33.97
2018-01-11T02:10:05.692Z,36.03
2018-01-11T02:12:33.063Z,33.37
2018-01-11T02:15:00.513Z,34.00
2018-01-11T02:17:27.873Z,33.07
2018-01-11T02:19:55.252Z,32.70
2018-01-11T02:22:22.684Z,34.30
2018-01-11T02:24:50.166Z,33.37
2018-01-11T02:27:17.550Z,34.80
2018-01-11T02:29:44.943Z,33.50
2018-01-11T02:32:12.329Z,35.10
2018-01-11T02:34:39.745Z,34.60
2018-01-11T02:37:07.130Z,34.40
2018-01-11T02:39:34.490Z,34.37
2018-01-11T02:42:01.982Z,33.63
2018-01-11T02:44:29.373Z,33.00
2018-01-11T02:46:56.753Z,31.13
2018-01-11T02:49:24.154Z,34.10
2018-01-11T02:51:51.639Z,32.00
2018-01-11T02:54:18.998Z,36.20
2018-01-11T02:56:46.408Z,34.40
2018-01-11T02:59:13.834Z,34.30
2018-01-11T03:01:41.199Z,35.03
2018-01-11T03:04:08.613Z,34.10
2018-01-11T03:06:36.055Z,32.63
2018-01-11T03:09:03.492Z,33.60
2018-01-11T03:11:30.844Z,34.07
2018-01-11T03:13:58.245Z,34.53
2018-01-11T03:16:25.637Z,34.10
2018-01-11T03:18:53.016Z,33.23
2018-01-11T03:21:20.398Z,33.43
2018-01-11T03:23:47.808Z,34.57
2018-01-11T03:26:15.181Z,34.50
2018-01-11T03:28:42.613Z,34.87
2018-01-11T03:31:10.050Z,36.90
2018-01-11T03:33:37.466Z,33.87
2018-01-11T03:36:04.829Z,35.20
2018-01-11T03:38:32.261Z,34.17
2018-01-11T03:40:59.657Z,36.70
2018-01-11T03:43:27.017Z,35.67
2018-01-11T03:45:54.469Z,36.47
2018-01-11T03:48:21.837Z,33.90
2018-01-11T03:50:49.197Z,38.73
2018-01-11T03:53:16.610Z,36.90
2018-01-11T03:55:43.990Z,36.20
2018-01-11T03:58:11.365Z,35.10
2018-01-11T04:00:38.803Z,36.67
2018-01-11T04:03:06.195Z,36.80
2018-01-11T04:05:33.588Z,34.80
2018-01-11T04:08:01.005Z,35.70
2018-01-11T04:10:28.402Z,35.67
2018-01-11T04:12:55.781Z,35.50
2018-01-11T04:15:23.180Z,36.20
2018-01-11T04:17:50.569Z,36.63
2018-01-11T04:20:17.949Z,36.00
2018-01-11T04:22:45.479Z,34.87
2018-01-11T04:25:12.881Z,35.60
2018-01-11T04:27:40.241Z,37.10
2018-01-11T04:30:07.631Z,37.70
2018-01-11T04:32:35.018Z,37.00
2018-01-11T04:35:02.482Z,36.13
2018-01-11T04:37:29.912Z,37.63
2018-01-11T04:39:57.301Z,36.57
2018-01-11T04:42:24.666Z,38.70
2018-01-11T04:44:52.098Z,36.77
2018-01-11T04:47:19.476Z,35.40
2018-01-11T04:49:47.022Z,36.57
2018-01-11T04:52:14.409Z,37.77
2018-01-11T04:54:41.796Z,36.53
2018-01-11T04:57:09.193Z,38.77
2018-01-11T04:59:36.606Z,37.20
2018-01-11T05:02:04.013Z,37.23
2018-01-11T05:04:31.396Z,37.20
2018-01-11T05:06:58.801Z,36.57
2018-01-11T05:09:26.202Z,38.07
2018-01-11T05:11:53.586Z,39.50
2018-01-11T05:14:21.006Z,38.37
2018-01-11T05:16:48.426Z,37.43
2018-01-11T05:19:15.812Z,39.40
2018-01-11T05:21:43.237Z,40.70
2018-01-11T05:24:10.700Z,39.40
2018-01-11T05:26:38.112Z,41.50
2018-01-11T05:29:05.549Z,40.03
2018-01-11T05:31:32.957Z,38.27
2018-01-11T05:34:00.348Z,41.60
2018-01-11T05:36:27.780Z,39.60
2018-01-11T05:38:55.205Z,40.67
2018-01-11T05:41:22.574Z,41.97
2018-01-11T05:43:49.961Z,40.77
2018-01-11T05:46:17.355Z,40.77
2018-01-11T05:48:44.716Z,40.57
2018-01-11T05:51:12.137Z,40.43
2018-01-11T05:53:39.502Z,42.83
2018-01-11T05:56:06.868Z,41.20
2018-01-11T05:58:34.284Z,39.30
2018-01-11T06:01:01.686Z,40.87
2018-01-11T06:03:29.073Z,40.03
2018-01-11T06:05:56.485Z,40.00
2018-01-11T06:08:23.875Z,39.37
2018-01-11T06:10:51.260Z,39.67
2018-01-11T06:13:18.809Z,41.40
2018-01-11T06:15:46.197Z,40.93
2018-01-11T06:18:13.582Z,42.10
2018-01-11T06:20:40.988Z,42.10
2018-01-11T06:23:08.373Z,42.93
2018-01-11T06:25:35.842Z,43.87
2018-01-11T06:28:03.289Z,43.90
2018-01-11T06:30:30.656Z,43.07
2018-01-11T06:32:58.150Z,41.20
2018-01-11T06:35:25.598Z,43.73
2018-01-11T06:37:52.970Z,41.60
2018-01-11T06:40:20.385Z,40.87
2018-01-11T06:42:47.777Z,43.20
2018-01-11T06:45:15.170Z,43.80
2018-01-11T06:47:42.547Z,45.83
2018-01-11T06:50:10.081Z,48.47
2018-01-11T06:52:37.488Z,46.27
2018-01-11T06:55:04.910Z,49.17
2018-01-11T06:57:32.302Z,47.17
2018-01-11T06:59:59.721Z,48.17
2018-01-11T07:02:27.085Z,49.27
2018-01-11T07:04:54.477Z,49.60
2018-01-11T07:07:21.921Z,46.43
2018-01-11T07:09:49.307Z,46.13
2018-01-11T07:12:16.672Z,46.93
2018-01-11T07:14:44.209Z,45.40
2018-01-11T07:17:11.730Z,47.57
2018-01-11T07:19:39.106Z,49.43
2018-01-11T07:22:06.532Z,49.57
2018-01-11T07:24:33.997Z,51.10
2018-01-11T07:27:01.417Z,47.17
2018-01-11T07:29:28.786Z,47.37
2018-01-11T07:31:56.300Z,48.73
2018-01-11T07:34:23.746Z,48.60
2018-01-11T07:36:51.125Z,45.70
2018-01-11T07:39:18.512Z,47.50
2018-01-11T07:41:45.929Z,46.77
2018-01-11T07:44:13.291Z,48.40
2018-01-11T07:46:40.660Z,46.33
2018-01-11T07:49:08.081Z,47.43
2018-01-11T07:51:35.471Z,49.13
2018-01-11T07:54:02.838Z,48.30
2018-01-11T07:56:30.231Z,47.80
2018-01-11T07:58:57.618Z,48.23
2018-01-11T08:01:25.015Z,49.10
2018-01-11T08:03:52.432Z,50.47
2018-01-11T08:06:19.821Z,49.73
2018-01-11T08:08:47.218Z,48.53
2018-01-11T08:11:14.641Z,50.30
2018-01-11T08:13:42.035Z,47.37
2018-01-11T08:16:09.437Z,48.17
2018-01-11T08:18:36.947Z,46.97
2018-01-11T08:21:04.337Z,48.17
2018-01-11T08:23:31.713Z,47.80
2018-01-11T08:25:59.211Z,45.90
2018-01-11T08:28:26.577Z,47.10
2018-01-11T08:30:53.965Z,46.60
2018-01-11T08:33:21.373Z,45.40
2018-01-11T08:35:48.769Z,47.80
2018-01-11T08:38:16.161Z,46.13
2018-01-11T08:40:43.629Z,44.60
2018-01-11T08:43:11.108Z,47.17
2018-01-11T08:45:38.498Z,47.90
2018-01-11T08:48:05.862Z,47.73
2018-01-11T08:50:33.280Z,48.57
2018-01-11T08:53:00.693Z,48.20
2018-01-11T08:55:28.085Z,52.13
2018-01-11T08:57:55.544Z,48.67
2018-01-11T09:00:23.026Z,48.60
2018-01-11T09:02:50.421Z,47.63
2018-01-11T09:05:17.828Z,47.80
2018-01-11T09:07:46.599Z,47.17
2018-01-11T09:10:13.988Z,48.87
2018-01-11T09:12:41.373Z,47.30
2018-01-11T09:15:08.797Z,45.27
2018-01-11T09:17:36.361Z,44.80
2018-01-11T09:20:03.737Z,44.67
2018-01-11T09:22:31.169Z,43.40
2018-01-11T09:24:58.601Z,44.53
2018-01-11T09:27:26.152Z,44.90
2018-01-11T09:29:53.569Z,46.13
2018-01-11T09:32:20.931Z,45.57
2018-01-11T09:34:48.442Z,44.30
2018-01-11T09:37:15.835Z,43.93
2018-01-11T09:39:43.225Z,44.20
2018-01-11T09:42:10.649Z,41.70
2018-01-11T09:44:38.024Z,43.80
2018-01-11T09:47:05.405Z,41.77
2018-01-11T09:49:32.806Z,42.50
2018-01-11T09:52:00.233Z,41.23
2018-01-11T09:54:27.685Z,45.10
2018-01-11T09:56:55.056Z,41.17
2018-01-11T09:59:22.481Z,42.87
2018-01-11T10:01:49.877Z,40.90
2018-01-11T10:04:17.251Z,39.57
2018-01-11T10:06:44.662Z,42.30
2018-01-11T10:09:12.043Z,40.57
2018-01-11T10:11:39.422Z,41.27
2018-01-11T10:14:06.858Z,40.47
2018-01-11T10:16:34.277Z,41.70
2018-01-11T10:19:01.651Z,41.43
2018-01-11T10:21:29.047Z,41.70
2018-01-11T10:23:56.413Z,41.07
2018-01-11T10:26:23.838Z,41.20
2018-01-11T10:28:51.246Z,41.67
2018-01-11T10:31:18.638Z,39.53
2018-01-11T10:33:46.092Z,40.37
2018-01-11T10:36:13.459Z,41.03
2018-01-11T10:38:40.877Z,40.93
2018-01-11T10:41:08.308Z,41.20
2018-01-11T10:43:35.742Z,41.30
2018-01-11T10:46:03.100Z,40.47
2018-01-11T10:48:30.469Z,40.77
2018-01-11T10:50:57.945Z,40.53
2018-01-11T10:53:25.310Z,40.57
2018-01-11T10:55:52.688Z,40.40
2018-01-11T10:58:20.109Z,38.83
2018-01-11T11:00:53.197Z,40.10
2018-01-11T11:03:20.616Z,38.60
2018-01-11T11:05:48.041Z,38.90
2018-01-11T11:08:15.445Z,39.57
2018-01-11T11:10:42.842Z,40.30
2018-01-11T11:13:10.265Z,39.17
2018-01-11T11:15:37.642Z,39.30
2018-01-11T11:18:05.507Z,39.00
2018-01-11T11:20:33.582Z,40.37
2018-01-11T11:23:01.391Z,39.07
2018-01-11T11:25:30.229Z,39.47
2018-01-11T11:27:57.693Z,39.83
2018-01-11T11:30:25.148Z,39.60
2018-01-11T11:32:52.603Z,42.00
2018-01-11T11:35:20.006Z,40.47
2018-01-11T11:37:47.390Z,40.13
2018-01-11T11:40:14.757Z,37.10
2018-01-11T11:42:42.142Z,40.20
2018-01-11T11:45:09.519Z,40.57
2018-01-11T11:47:36.948Z,41.13
2018-01-11T11:50:04.340Z,39.50
2018-01-11T11:52:31.704Z,36.30
2018-01-11T11:54:59.101Z,38.47
2018-01-11T11:57:26.478Z,35.30
2018-01-11T11:59:53.993Z,36.37
2018-01-11T12:02:22.841Z,35.93
2018-01-11T12:04:51.458Z,35.80
2018-01-11T12:07:19.768Z,34.23
2018-01-11T12:09:47.941Z,34.93
2018-01-11T12:12:15.603Z,34.67
2018-01-11T12:14:44.498Z,34.30
2018-01-11T12:17:13.038Z,33.43
2018-01-11T12:19:42.083Z,34.43
2018-01-11T12:22:09.526Z,32.83
2018-01-11T12:24:36.886Z,32.40
2018-01-11T12:27:04.302Z,33.83
2018-01-11T12:29:31.717Z,32.77
2018-01-11T12:31:59.085Z,32.77
2018-01-11T12:34:26.485Z,31.73
2018-01-11T12:36:53.848Z,32.70
2018-01-11T12:39:21.264Z,31.70
2018-01-11T12:41:48.676Z,32.20
2018-01-11T12:44:16.083Z,31.00
2018-01-11T12:46:43.525Z,32.30
2018-01-11T12:49:10.891Z,31.43
2018-01-11T12:51:38.412Z,30.63
2018-01-11T12:54:05.829Z,32.47
2018-01-11T12:56:33.223Z,30.20
2018-01-11T12:59:00.648Z,29.83
2018-01-11T13:01:28.085Z,31.03
2018-01-11T13:03:55.478Z,32.30
2018-01-11T13:06:22.897Z,32.33
2018-01-11T13:08:50.311Z,30.47
2018-01-11T13:11:17.677Z,31.40
2018-01-11T13:13:45.087Z,29.77
2018-01-11T13:16:12.450Z,29.70
2018-01-11T13:18:39.817Z,30.37
2018-01-11T13:21:07.227Z,30.87
2018-01-11T13:23:34.612Z,29.20
2018-01-11T13:26:02.034Z,30.10
2018-01-11T13:28:29.422Z,31.53
2018-01-11T13:30:56.880Z,32.87
2018-01-11T13:33:24.291Z,34.57
2018-01-11T13:35:51.653Z,34.50
2018-01-11T13:38:19.041Z,32.90
2018-01-11T13:40:46.473Z,35.90
2018-01-11T13:43:13.841Z,36.40
2018-01-11T13:45:41.229Z,35.27
2018-01-11T13:48:09.143Z,36.40
2018-01-11T13:50:36.626Z,35.47
2018-01-11T13:53:04.237Z,36.13
2018-01-11T13:55:31.657Z,34.10
2018-01-11T13:57:59.042Z,37.10
2018-01-11T14:00:26.432Z,37.10
2018-01-11T14:02:54.173Z,37.30
2018-01-11T14:05:21.798Z,36.50
2018-01-11T14:07:49.225Z,36.23
2018-01-11T14:10:16.611Z,34.90
2018-01-11T14:12:43.994Z,37.67
2018-01-11T14:15:11.427Z,36.67
2018-01-11T14:17:38.905Z,37.53
2018-01-11T14:20:06.303Z,37.33
2018-01-11T14:22:33.790Z,35.83
2018-01-11T14:25:01.209Z,35.83
2018-01-11T14:27:28.593Z,37.13
2018-01-11T14:29:56.013Z,36.77
2018-01-11T14:32:23.369Z,35.00
2018-01-11T14:34:50.741Z,34.30
2018-01-11T14:37:18.146Z,32.37
2018-01-11T14:39:45.522Z,30.90
2018-01-11T14:42:12.897Z,32.27
2018-01-11T14:44:40.385Z,28.87
2018-01-11T14:47:07.882Z,29.00
2018-01-11T14:49:35.282Z,31.07
2018-01-11T14:52:02.712Z,29.30
2018-01-11T14:54:30.137Z,29.77
2018-01-11T14:56:57.521Z,28.77
2018-01-11T14:59:24.947Z,26.97
2018-01-11T15:01:52.325Z,27.53
2018-01-11T15:04:19.689Z,28.50
2018-01-11T15:06:47.234Z,27.77
2018-01-11T15:09:14.772Z,28.80
2018-01-11T15:11:42.149Z,27.40
2018-01-11T15:14:09.548Z,27.47
2018-01-11T15:16:36.949Z,28.33
2018-01-11T15:19:04.377Z,27.53
2018-01-11T15:21:31.781Z,27.40
2018-01-11T15:23:59.297Z,28.20
2018-01-11T15:26:26.709Z,26.60
2018-01-11T15:28:54.113Z,26.77
2018-01-11T15:31:21.538Z,25.83
2018-01-11T15:33:48.938Z,25.73
2018-01-11T15:36:16.326Z,23.73
2018-01-11T15:38:44.244Z,25.43
2018-01-11T15:41:11.829Z,25.63
2018-01-11T15:43:39.212Z,24.30
2018-01-11T15:46:06.590Z,25.97
2018-01-11T15:48:33.998Z,24.07
2018-01-11T15:51:01.409Z,23.80
2018-01-11T15:53:28.895Z,24.67
2018-01-11T15:55:56.302Z,24.63
2018-01-11T15:58:23.685Z,23.13
2018-01-11T16:00:51.157Z,25.00
2018-01-11T16:03:18.645Z,24.47
2018-01-11T16:05:46.041Z,25.07
2018-01-11T16:08:13.449Z,23.80
2018-01-11T16:10:40.852Z,25.70
2018-01-11T16:13:09.052Z,26.10
2018-01-11T16:15:36.831Z,26.17
2018-01-11T16:18:04.406Z,22.90
2018-01-11T16:20:32.110Z,24.00
2018-01-11T16:23:00.387Z,24.87
2018-01-11T16:25:28.000Z,23.60
2018-01-11T16:27:55.946Z,22.20
2018-01-11T16:30:23.559Z,23.70
2018-01-11T16:32:51.552Z,24.23
2018-01-11T16:35:19.381Z,25.00
2018-01-11T16:37:47.017Z,23.83
2018-01-11T16:40:14.793Z,24.90
2018-01-11T16:42:42.977Z,26.10
2018-01-11T16:45:10.827Z,24.30
2018-01-11T16:47:38.408Z,24.80
2018-01-11T16:50:06.274Z,24.70
2018-01-11T16:52:34.322Z,25.40
2018-01-11T16:55:01.987Z,24.97
2018-01-11T16:57:30.038Z,25.23
2018-01-11T16:59:57.558Z,25.23
2018-01-11T17:02:25.501Z,25.50
2018-01-11T17:04:52.931Z,24.37
2018-01-11T17:07:20.703Z,24.20
2018-01-11T17:09:48.798Z,24.33
2018-01-11T17:12:16.285Z,23.50
2018-01-11T17:14:45.570Z,23.50
2018-01-11T17:17:13.392Z,24.63
2018-01-11T17:19:41.564Z,24.53
2018-01-11T17:22:09.586Z,25.27
2018-01-11T17:24:37.501Z,25.33
2018-01-11T17:27:04.966Z,25.03
2018-01-11T17:29:32.786Z,25.10
2018-01-11T17:32:00.375Z,24.67
